sensor_id;sensor_type;location;lat;lon;timestamp;pressure;altitude;pressure_sealevel;temperature;humidity
67738;BME280;54534;43.612;1.572;2023-04-28T00:00:00;99045.81;;;20.75;56.45
67738;BME280;54534;43.612;1.572;2023-04-28T00:02:26;99052.00;;;20.75;56.25
67738;BME280;54534;43.612;1.572;2023-04-28T00:04:51;99037.78;;;20.75;56.18
67738;BME280;54534;43.612;1.572;2023-04-28T00:07:17;99042.44;;;20.73;56.18
67738;BME280;54534;43.612;1.572;2023-04-28T00:09:42;99033.56;;;20.72;56.41
67738;BME280;54534;43.612;1.572;2023-04-28T00:12:08;99033.56;;;20.72;56.27
67738;BME280;54534;43.612;1.572;2023-04-28T00:14:33;99023.84;;;20.71;56.44
67738;BME280;54534;43.612;1.572;2023-04-28T00:16:58;99029.22;;;20.71;56.16
67738;BME280;54534;43.612;1.572;2023-04-28T00:19:24;99028.34;;;20.71;56.28
67738;BME280;54534;43.612;1.572;2023-04-28T00:21:49;99031.03;;;20.71;56.07
67738;BME280;54534;43.612;1.572;2023-04-28T00:24:15;99031.03;;;20.71;56.17
67738;BME280;54534;43.612;1.572;2023-04-28T00:26:40;99025.69;;;20.71;56.16
67738;BME280;54534;43.612;1.572;2023-04-28T00:29:05;99020.50;;;20.69;56.17
67738;BME280;54534;43.612;1.572;2023-04-28T00:31:31;99017.81;;;20.69;56.23
67738;BME280;54534;43.612;1.572;2023-04-28T00:33:56;99015.16;;;20.69;56.21
67738;BME280;54534;43.612;1.572;2023-04-28T00:36:22;99016.13;;;20.68;56.30
67738;BME280;54534;43.612;1.572;2023-04-28T00:38:47;99012.47;;;20.69;56.17
67738;BME280;54534;43.612;1.572;2023-04-28T00:41:12;99003.78;;;20.67;56.18
67738;BME280;54534;43.612;1.572;2023-04-28T00:43:46;99010.94;;;20.66;56.13
67738;BME280;54534;43.612;1.572;2023-04-28T00:46:19;99002.06;;;20.66;56.13
67738;BME280;54534;43.612;1.572;2023-04-28T00:48:45;98994.06;;;20.66;56.03
67738;BME280;54534;43.612;1.572;2023-04-28T00:51:11;98999.56;;;20.64;56.28
67738;BME280;54534;43.612;1.572;2023-04-28T00:53:37;98996.72;;;20.66;56.05
67738;BME280;54534;43.612;1.572;2023-04-28T00:56:02;98996.72;;;20.66;56.13
67738;BME280;54534;43.612;1.572;2023-04-28T00:58:28;98994.22;;;20.64;56.18
67738;BME280;54534;43.612;1.572;2023-04-28T01:01:01;98995.03;;;20.65;56.05
67738;BME280;54534;43.612;1.572;2023-04-28T01:03:27;98995.19;;;20.63;55.93
67738;BME280;54534;43.612;1.572;2023-04-28T01:05:53;99002.22;;;20.64;55.92
67738;BME280;54534;43.612;1.572;2023-04-28T01:08:23;99001.38;;;20.64;55.92
67738;BME280;54534;43.612;1.572;2023-04-28T01:10:48;98998.00;;;20.62;56.21
67738;BME280;54534;43.612;1.572;2023-04-28T01:13:14;98987.31;;;20.62;56.05
67738;BME280;54534;43.612;1.572;2023-04-28T01:15:39;98987.31;;;20.62;56.20
67738;BME280;54534;43.612;1.572;2023-04-28T01:18:05;98987.31;;;20.62;56.11
67738;BME280;54534;43.612;1.572;2023-04-28T01:20:30;98982.00;;;20.62;56.07
67738;BME280;54534;43.612;1.572;2023-04-28T01:22:55;98987.31;;;20.62;56.19
67738;BME280;54534;43.612;1.572;2023-04-28T01:25:21;98976.66;;;20.62;56.04
67738;BME280;54534;43.612;1.572;2023-04-28T01:27:46;98982.81;;;20.62;56.12
67738;BME280;54534;43.612;1.572;2023-04-28T01:30:11;98980.28;;;20.61;56.22
67738;BME280;54534;43.612;1.572;2023-04-28T01:32:37;98982.97;;;20.61;56.11
67738;BME280;54534;43.612;1.572;2023-04-28T01:35:02;98974.09;;;20.60;56.18
67738;BME280;54534;43.612;1.572;2023-04-28T01:37:28;98978.59;;;20.60;56.11
67738;BME280;54534;43.612;1.572;2023-04-28T01:39:53;98976.78;;;20.60;56.03
67738;BME280;54534;43.612;1.572;2023-04-28T01:42:19;98972.44;;;20.59;56.04
67738;BME280;54534;43.612;1.572;2023-04-28T01:44:44;98974.25;;;20.59;56.10
67738;BME280;54534;43.612;1.572;2023-04-28T01:47:10;98968.91;;;20.59;55.87
67738;BME280;54534;43.612;1.572;2023-04-28T01:49:35;98973.41;;;20.58;56.04
67738;BME280;54534;43.612;1.572;2023-04-28T01:52:00;98977.78;;;20.59;56.14
67738;BME280;54534;43.612;1.572;2023-04-28T01:54:26;98979.72;;;20.57;56.06
67738;BME280;54534;43.612;1.572;2023-04-28T01:56:52;98984.25;;;20.56;55.92
67738;BME280;54534;43.612;1.572;2023-04-28T01:59:17;98982.38;;;20.57;56.06
67738;BME280;54534;43.612;1.572;2023-04-28T02:01:44;98984.25;;;20.56;55.97
67738;BME280;54534;43.612;1.572;2023-04-28T02:04:09;98984.25;;;20.56;55.92
67738;BME280;54534;43.612;1.572;2023-04-28T02:06:35;98989.59;;;20.56;56.13
67738;BME280;54534;43.612;1.572;2023-04-28T02:09:00;98988.75;;;20.56;55.98
67738;BME280;54534;43.612;1.572;2023-04-28T02:11:26;98986.19;;;20.54;55.93
67738;BME280;54534;43.612;1.572;2023-04-28T02:13:51;98987.03;;;20.55;55.93
67738;BME280;54534;43.612;1.572;2023-04-28T02:16:17;98987.88;;;20.55;55.73
67738;BME280;54534;43.612;1.572;2023-04-28T02:18:42;98990.72;;;20.54;56.07
67738;BME280;54534;43.612;1.572;2023-04-28T02:21:09;98996.88;;;20.54;55.90
67738;BME280;54534;43.612;1.572;2023-04-28T02:23:35;98994.34;;;20.53;55.89
67738;BME280;54534;43.612;1.572;2023-04-28T02:26:01;98995.06;;;20.55;55.93
67738;BME280;54534;43.612;1.572;2023-04-28T02:28:28;98996.06;;;20.54;56.06
67738;BME280;54534;43.612;1.572;2023-04-28T02:31:05;99000.38;;;20.55;55.84
67738;BME280;54534;43.612;1.572;2023-04-28T02:33:31;98986.34;;;20.53;55.99
67738;BME280;54534;43.612;1.572;2023-04-28T02:36:03;98988.16;;;20.52;55.94
67738;BME280;54534;43.612;1.572;2023-04-28T02:38:29;98989.00;;;20.53;55.86
67738;BME280;54534;43.612;1.572;2023-04-28T02:41:05;98978.47;;;20.51;55.85
67738;BME280;54534;43.612;1.572;2023-04-28T02:43:34;98982.81;;;20.52;56.06
67738;BME280;54534;43.612;1.572;2023-04-28T02:46:00;98978.47;;;20.51;56.03
67738;BME280;54534;43.612;1.572;2023-04-28T02:48:26;98969.47;;;20.52;55.94
67738;BME280;54534;43.612;1.572;2023-04-28T02:50:52;98962.59;;;20.50;55.73
67738;BME280;54534;43.612;1.572;2023-04-28T02:53:21;98961.63;;;20.51;55.84
67738;BME280;54534;43.612;1.572;2023-04-28T02:55:47;98968.78;;;20.50;55.73
67738;BME280;54534;43.612;1.572;2023-04-28T02:58:13;98958.09;;;20.50;55.84
67738;BME280;54534;43.612;1.572;2023-04-28T03:00:39;98956.41;;;20.49;55.87
67738;BME280;54534;43.612;1.572;2023-04-28T03:03:04;98951.91;;;20.50;55.77
67738;BME280;54534;43.612;1.572;2023-04-28T03:05:29;98953.72;;;20.49;55.83
67738;BME280;54534;43.612;1.572;2023-04-28T03:07:55;98944.91;;;20.49;55.79
67738;BME280;54534;43.612;1.572;2023-04-28T03:10:21;98941.38;;;20.48;55.89
67738;BME280;54534;43.612;1.572;2023-04-28T03:12:46;98937.00;;;20.47;55.69
67738;BME280;54534;43.612;1.572;2023-04-28T03:15:12;98948.38;;;20.49;55.78
67738;BME280;54534;43.612;1.572;2023-04-28T03:17:37;98948.38;;;20.49;55.80
67738;BME280;54534;43.612;1.572;2023-04-28T03:20:07;98951.22;;;20.48;55.75
67738;BME280;54534;43.612;1.572;2023-04-28T03:22:33;98948.53;;;20.48;55.82
67738;BME280;54534;43.612;1.572;2023-04-28T03:24:58;98950.34;;;20.47;55.90
67738;BME280;54534;43.612;1.572;2023-04-28T03:27:24;98946.84;;;20.47;55.74
67738;BME280;54534;43.612;1.572;2023-04-28T03:29:49;98950.34;;;20.47;55.87
67738;BME280;54534;43.612;1.572;2023-04-28T03:32:15;98946.84;;;20.47;56.00
67738;BME280;54534;43.612;1.572;2023-04-28T03:34:40;98947.69;;;20.47;55.55
67738;BME280;54534;43.612;1.572;2023-04-28T03:37:05;98946.03;;;20.46;55.58
67738;BME280;54534;43.612;1.572;2023-04-28T03:39:31;98945.19;;;20.45;55.56
67738;BME280;54534;43.612;1.572;2023-04-28T03:41:56;98950.50;;;20.45;55.56
67738;BME280;54534;43.612;1.572;2023-04-28T03:44:22;98961.19;;;20.45;55.76
67738;BME280;54534;43.612;1.572;2023-04-28T03:46:48;98957.69;;;20.45;55.62
67738;BME280;54534;43.612;1.572;2023-04-28T03:49:13;98957.84;;;20.43;55.69
67738;BME280;54534;43.612;1.572;2023-04-28T03:51:39;98958.53;;;20.45;55.81
67738;BME280;54534;43.612;1.572;2023-04-28T03:54:05;98960.34;;;20.45;55.78
67738;BME280;54534;43.612;1.572;2023-04-28T03:56:30;98967.66;;;20.43;55.55
67738;BME280;54534;43.612;1.572;2023-04-28T03:58:56;98966.66;;;20.44;55.57
67738;BME280;54534;43.612;1.572;2023-04-28T04:01:21;98969.34;;;20.44;55.64
67738;BME280;54534;43.612;1.572;2023-04-28T04:03:47;98969.34;;;20.44;55.62
67738;BME280;54534;43.612;1.572;2023-04-28T04:06:12;98962.31;;;20.43;55.58
67738;BME280;54534;43.612;1.572;2023-04-28T04:08:38;98956.13;;;20.42;55.55
67738;BME280;54534;43.612;1.572;2023-04-28T04:11:04;98947.28;;;20.42;55.55
67738;BME280;54534;43.612;1.572;2023-04-28T04:13:29;98951.75;;;20.41;55.60
67738;BME280;54534;43.612;1.572;2023-04-28T04:15:55;98950.94;;;20.41;55.52
67738;BME280;54534;43.612;1.572;2023-04-28T04:18:20;98956.28;;;20.41;55.34
67738;BME280;54534;43.612;1.572;2023-04-28T04:20:46;98952.78;;;20.40;55.57
67738;BME280;54534;43.612;1.572;2023-04-28T04:23:11;98966.97;;;20.41;55.45
67738;BME280;54534;43.612;1.572;2023-04-28T04:25:36;98965.44;;;20.38;55.40
67738;BME280;54534;43.612;1.572;2023-04-28T04:28:02;98965.28;;;20.40;55.44
67738;BME280;54534;43.612;1.572;2023-04-28T04:30:27;98962.59;;;20.40;55.43
67738;BME280;54534;43.612;1.572;2023-04-28T04:32:53;98966.13;;;20.40;55.55
67738;BME280;54534;43.612;1.572;2023-04-28T04:35:18;98975.94;;;20.40;55.32
67738;BME280;54534;43.612;1.572;2023-04-28T04:37:43;98971.59;;;20.39;55.30
67738;BME280;54534;43.612;1.572;2023-04-28T04:40:09;98967.09;;;20.39;55.06
67738;BME280;54534;43.612;1.572;2023-04-28T04:42:35;98969.75;;;20.39;55.49
67738;BME280;54534;43.612;1.572;2023-04-28T04:45:00;98987.59;;;20.39;55.45
67738;BME280;54534;43.612;1.572;2023-04-28T04:47:25;98993.78;;;20.39;55.36
67738;BME280;54534;43.612;1.572;2023-04-28T04:49:51;98981.44;;;20.38;55.38
67738;BME280;54534;43.612;1.572;2023-04-28T04:52:17;98976.94;;;20.39;55.37
67738;BME280;54534;43.612;1.572;2023-04-28T04:54:43;98968.09;;;20.38;55.24
67738;BME280;54534;43.612;1.572;2023-04-28T04:57:09;98971.59;;;20.39;55.13
67738;BME280;54534;43.612;1.572;2023-04-28T04:59:35;98970.78;;;20.38;55.23
67738;BME280;54534;43.612;1.572;2023-04-28T05:02:00;98975.25;;;20.38;55.37
67738;BME280;54534;43.612;1.572;2023-04-28T05:04:26;98972.59;;;20.38;55.43
67738;BME280;54534;43.612;1.572;2023-04-28T05:06:51;98972.72;;;20.36;55.22
67738;BME280;54534;43.612;1.572;2023-04-28T05:09:17;98974.41;;;20.37;55.34
67738;BME280;54534;43.612;1.572;2023-04-28T05:11:42;98980.72;;;20.36;55.22
67738;BME280;54534;43.612;1.572;2023-04-28T05:14:07;98983.38;;;20.36;55.35
67738;BME280;54534;43.612;1.572;2023-04-28T05:16:33;98997.59;;;20.37;55.41
67738;BME280;54534;43.612;1.572;2023-04-28T05:18:58;98994.06;;;20.36;55.23
67738;BME280;54534;43.612;1.572;2023-04-28T05:21:24;98991.56;;;20.34;55.25
67738;BME280;54534;43.612;1.572;2023-04-28T05:23:49;98993.25;;;20.36;55.33
67738;BME280;54534;43.612;1.572;2023-04-28T05:26:15;98996.75;;;20.36;55.32
67738;BME280;54534;43.612;1.572;2023-04-28T05:28:40;98993.25;;;20.36;55.15
67738;BME280;54534;43.612;1.572;2023-04-28T05:31:06;98991.41;;;20.36;55.13
67738;BME280;54534;43.612;1.572;2023-04-28T05:33:32;98995.94;;;20.36;54.93
67738;BME280;54534;43.612;1.572;2023-04-28T05:35:57;98986.22;;;20.34;55.27
67738;BME280;54534;43.612;1.572;2023-04-28T05:38:23;98992.25;;;20.37;55.24
67738;BME280;54534;43.612;1.572;2023-04-28T05:40:48;98989.72;;;20.35;55.34
67738;BME280;54534;43.612;1.572;2023-04-28T05:43:14;98998.59;;;20.36;55.33
67738;BME280;54534;43.612;1.572;2023-04-28T05:45:39;98995.94;;;20.36;55.31
67738;BME280;54534;43.612;1.572;2023-04-28T05:48:05;99001.25;;;20.36;55.45
67738;BME280;54534;43.612;1.572;2023-04-28T05:50:30;98994.22;;;20.34;55.49
67738;BME280;54534;43.612;1.572;2023-04-28T05:52:56;98993.25;;;20.36;55.49
67738;BME280;54534;43.612;1.572;2023-04-28T05:55:21;98998.59;;;20.36;55.44
67738;BME280;54534;43.612;1.572;2023-04-28T05:57:47;99000.41;;;20.35;55.47
67738;BME280;54534;43.612;1.572;2023-04-28T06:00:13;99004.75;;;20.36;55.57
67738;BME280;54534;43.612;1.572;2023-04-28T06:02:38;99017.28;;;20.36;55.47
67738;BME280;54534;43.612;1.572;2023-04-28T06:05:04;99019.09;;;20.35;55.52
67738;BME280;54534;43.612;1.572;2023-04-28T06:07:30;99009.41;;;20.34;55.59
67738;BME280;54534;43.612;1.572;2023-04-28T06:09:55;99022.75;;;20.34;55.51
67738;BME280;54534;43.612;1.572;2023-04-28T06:12:21;99024.44;;;20.35;55.60
67738;BME280;54534;43.612;1.572;2023-04-28T06:14:46;99028.94;;;20.34;55.49
67738;BME280;54534;43.612;1.572;2023-04-28T06:17:11;99038.66;;;20.36;55.53
67738;BME280;54534;43.612;1.572;2023-04-28T06:19:37;99046.66;;;20.36;55.59
67738;BME280;54534;43.612;1.572;2023-04-28T06:22:02;99047.63;;;20.34;55.45
67738;BME280;54534;43.612;1.572;2023-04-28T06:24:28;99046.66;;;20.36;55.48
67738;BME280;54534;43.612;1.572;2023-04-28T06:26:53;99048.31;;;20.37;55.55
67738;BME280;54534;43.612;1.572;2023-04-28T06:29:18;99042.97;;;20.37;55.63
67738;BME280;54534;43.612;1.572;2023-04-28T06:31:46;99046.50;;;20.37;55.76
67738;BME280;54534;43.612;1.572;2023-04-28T06:34:11;99044.69;;;20.38;55.55
67738;BME280;54534;43.612;1.572;2023-04-28T06:36:36;99055.38;;;20.38;55.45
67738;BME280;54534;43.612;1.572;2023-04-28T06:39:02;99047.34;;;20.38;55.31
67738;BME280;54534;43.612;1.572;2023-04-28T06:41:27;99037.66;;;20.37;55.44
67738;BME280;54534;43.612;1.572;2023-04-28T06:43:53;99037.66;;;20.37;55.29
67738;BME280;54534;43.612;1.572;2023-04-28T06:46:19;99043.84;;;20.37;55.31
67738;BME280;54534;43.612;1.572;2023-04-28T06:48:44;99045.66;;;20.37;55.29
67738;BME280;54534;43.612;1.572;2023-04-28T06:51:10;99043.97;;;20.36;55.38
67738;BME280;54534;43.612;1.572;2023-04-28T06:53:35;99041.31;;;20.36;55.40
67738;BME280;54534;43.612;1.572;2023-04-28T06:56:01;99041.31;;;20.36;55.17
67738;BME280;54534;43.612;1.572;2023-04-28T06:58:27;99045.81;;;20.35;55.27
67738;BME280;54534;43.612;1.572;2023-04-28T07:00:52;99039.47;;;20.36;55.33
67738;BME280;54534;43.612;1.572;2023-04-28T07:03:18;99049.31;;;20.36;55.13
67738;BME280;54534;43.612;1.572;2023-04-28T07:05:43;99053.66;;;20.37;55.02
67738;BME280;54534;43.612;1.572;2023-04-28T07:08:09;99049.19;;;20.37;55.04
67738;BME280;54534;43.612;1.572;2023-04-28T07:10:34;99049.19;;;20.37;55.16
67738;BME280;54534;43.612;1.572;2023-04-28T07:13:00;99057.19;;;20.37;54.94
67738;BME280;54534;43.612;1.572;2023-04-28T07:15:25;99052.81;;;20.36;54.93
67738;BME280;54534;43.612;1.572;2023-04-28T07:17:51;99058.16;;;20.36;54.96
67738;BME280;54534;43.612;1.572;2023-04-28T07:20:16;99052.69;;;20.38;54.77
67738;BME280;54534;43.612;1.572;2023-04-28T07:22:42;99055.47;;;20.36;54.97
67738;BME280;54534;43.612;1.572;2023-04-28T07:25:07;99059.00;;;20.37;55.08
67738;BME280;54534;43.612;1.572;2023-04-28T07:27:33;99059.84;;;20.37;54.94
67738;BME280;54534;43.612;1.572;2023-04-28T07:29:58;99057.34;;;20.36;54.94
67738;BME280;54534;43.612;1.572;2023-04-28T07:32:24;99064.34;;;20.37;54.86
67738;BME280;54534;43.612;1.572;2023-04-28T07:34:50;99066.16;;;20.36;54.84
67738;BME280;54534;43.612;1.572;2023-04-28T07:37:15;99074.19;;;20.36;54.76
67738;BME280;54534;43.612;1.572;2023-04-28T07:39:41;99070.81;;;20.34;54.83
67738;BME280;54534;43.612;1.572;2023-04-28T07:42:06;99069.84;;;20.35;54.81
67738;BME280;54534;43.612;1.572;2023-04-28T07:44:32;99061.81;;;20.35;54.96
67738;BME280;54534;43.612;1.572;2023-04-28T07:47:01;99060.97;;;20.34;54.77
67738;BME280;54534;43.612;1.572;2023-04-28T07:49:30;99060.13;;;20.34;54.48
67738;BME280;54534;43.612;1.572;2023-04-28T07:51:55;99064.78;;;20.32;54.23
67738;BME280;54534;43.612;1.572;2023-04-28T07:54:22;99049.72;;;20.31;54.44
67738;BME280;54534;43.612;1.572;2023-04-28T07:56:49;99066.59;;;20.31;54.58
67738;BME280;54534;43.612;1.572;2023-04-28T07:59:14;99062.94;;;20.32;54.67
67738;BME280;54534;43.612;1.572;2023-04-28T08:01:39;99055.91;;;20.31;54.75
67738;BME280;54534;43.612;1.572;2023-04-28T08:04:05;99055.91;;;20.31;54.56
67738;BME280;54534;43.612;1.572;2023-04-28T08:06:31;99054.09;;;20.32;54.76
67738;BME280;54534;43.612;1.572;2023-04-28T08:08:57;99066.59;;;20.31;54.62
67738;BME280;54534;43.612;1.572;2023-04-28T08:11:23;99063.91;;;20.31;54.77
67738;BME280;54534;43.612;1.572;2023-04-28T08:13:48;99061.25;;;20.31;54.62
67738;BME280;54534;43.612;1.572;2023-04-28T08:16:14;99070.97;;;20.32;54.61
67738;BME280;54534;43.612;1.572;2023-04-28T08:18:39;99067.44;;;20.32;54.70
67738;BME280;54534;43.612;1.572;2023-04-28T08:21:05;99069.13;;;20.33;54.73
67738;BME280;54534;43.612;1.572;2023-04-28T08:23:31;99068.28;;;20.32;54.76
67738;BME280;54534;43.612;1.572;2023-04-28T08:25:57;99084.31;;;20.32;54.70
67738;BME280;54534;43.612;1.572;2023-04-28T08:28:22;99072.78;;;20.32;54.48
67738;BME280;54534;43.612;1.572;2023-04-28T08:30:49;99083.47;;;20.32;54.67
67738;BME280;54534;43.612;1.572;2023-04-28T08:33:14;99086.97;;;20.32;54.52
67738;BME280;54534;43.612;1.572;2023-04-28T08:35:39;99078.97;;;20.32;54.77
67738;BME280;54534;43.612;1.572;2023-04-28T08:38:05;99075.44;;;20.32;54.55
67738;BME280;54534;43.612;1.572;2023-04-28T08:40:31;99076.28;;;20.32;54.61
67738;BME280;54534;43.612;1.572;2023-04-28T08:42:57;99076.28;;;20.32;54.64
67738;BME280;54534;43.612;1.572;2023-04-28T08:45:23;99068.28;;;20.32;54.71
67738;BME280;54534;43.612;1.572;2023-04-28T08:47:50;99054.94;;;20.32;54.63
67738;BME280;54534;43.612;1.572;2023-04-28T08:50:20;99060.28;;;20.32;54.70
67738;BME280;54534;43.612;1.572;2023-04-28T08:52:46;99069.13;;;20.33;54.73
67738;BME280;54534;43.612;1.572;2023-04-28T08:55:12;99072.78;;;20.32;54.77
67738;BME280;54534;43.612;1.572;2023-04-28T08:57:46;99069.97;;;20.33;54.82
67738;BME280;54534;43.612;1.572;2023-04-28T09:00:13;99072.63;;;20.33;54.79
67738;BME280;54534;43.612;1.572;2023-04-28T09:02:39;99068.28;;;20.32;54.63
67738;BME280;54534;43.612;1.572;2023-04-28T09:05:10;99061.94;;;20.33;54.71
67738;BME280;54534;43.612;1.572;2023-04-28T09:07:36;99063.06;;;20.31;54.65
67738;BME280;54534;43.612;1.572;2023-04-28T09:10:20;99057.59;;;20.32;54.72
67738;BME280;54534;43.612;1.572;2023-04-28T09:12:47;99053.13;;;20.33;54.76
67738;BME280;54534;43.612;1.572;2023-04-28T09:15:35;99053.13;;;20.33;54.61
67738;BME280;54534;43.612;1.572;2023-04-28T09:18:05;99056.75;;;20.32;54.82
67738;BME280;54534;43.612;1.572;2023-04-28T09:20:31;99055.06;;;20.31;54.65
67738;BME280;54534;43.612;1.572;2023-04-28T09:23:18;99058.56;;;20.31;54.62
67738;BME280;54534;43.612;1.572;2023-04-28T09:26:00;99062.94;;;20.32;54.59
67738;BME280;54534;43.612;1.572;2023-04-28T09:28:26;99057.59;;;20.32;54.69
67738;BME280;54534;43.612;1.572;2023-04-28T09:30:52;99053.13;;;20.33;54.84
67738;BME280;54534;43.612;1.572;2023-04-28T09:33:18;99054.94;;;20.32;54.86
67738;BME280;54534;43.612;1.572;2023-04-28T09:35:44;99057.59;;;20.32;54.78
67738;BME280;54534;43.612;1.572;2023-04-28T09:38:11;99059.28;;;20.33;54.70
67738;BME280;54534;43.612;1.572;2023-04-28T09:45:53;99054.78;;;20.34;54.84
67738;BME280;54534;43.612;1.572;2023-04-28T09:48:32;99037.78;;;20.35;54.81
67738;BME280;54534;43.612;1.572;2023-04-28T09:50:59;99049.31;;;20.36;54.83
67738;BME280;54534;43.612;1.572;2023-04-28T09:53:26;99047.47;;;20.36;54.79
67738;BME280;54534;43.612;1.572;2023-04-28T09:55:53;99053.66;;;20.37;54.88
67738;BME280;54534;43.612;1.572;2023-04-28T09:58:20;99053.66;;;20.37;54.83
67738;BME280;54534;43.612;1.572;2023-04-28T10:00:50;99059.84;;;20.37;54.56
67738;BME280;54534;43.612;1.572;2023-04-28T10:03:16;99043.84;;;20.37;54.81
67738;BME280;54534;43.612;1.572;2023-04-28T10:05:43;99042.00;;;20.38;54.70
67738;BME280;54534;43.612;1.572;2023-04-28T10:08:09;99042.84;;;20.38;54.81
67738;BME280;54534;43.612;1.572;2023-04-28T10:10:36;99041.00;;;20.39;54.87
67738;BME280;54534;43.612;1.572;2023-04-28T10:13:02;99042.72;;;20.40;54.84
67738;BME280;54534;43.612;1.572;2023-04-28T10:15:27;99041.00;;;20.39;54.85
67738;BME280;54534;43.612;1.572;2023-04-28T10:17:52;99033.00;;;20.39;54.83
67738;BME280;54534;43.612;1.572;2023-04-28T10:20:18;99032.88;;;20.40;54.94
67738;BME280;54534;43.612;1.572;2023-04-28T10:22:57;99028.38;;;20.41;54.87
67738;BME280;54534;43.612;1.572;2023-04-28T10:25:36;99019.38;;;20.42;54.88
67738;BME280;54534;43.612;1.572;2023-04-28T10:28:07;99024.72;;;20.42;54.93
67738;BME280;54534;43.612;1.572;2023-04-28T10:30:33;99019.25;;;20.43;54.96
67738;BME280;54534;43.612;1.572;2023-04-28T10:35:43;99017.41;;;20.44;55.00
67738;BME280;54534;43.612;1.572;2023-04-28T10:38:19;99017.41;;;20.44;55.17
67738;BME280;54534;43.612;1.572;2023-04-28T10:40:51;99016.28;;;20.47;55.12
67738;BME280;54534;43.612;1.572;2023-04-28T10:58:40;98995.47;;;20.50;55.23
67738;BME280;54534;43.612;1.572;2023-04-28T11:01:31;98998.16;;;20.50;55.21
67738;BME280;54534;43.612;1.572;2023-04-28T11:04:08;98998.84;;;20.52;55.30
67738;BME280;54534;43.612;1.572;2023-04-28T11:06:45;98995.19;;;20.53;55.67
67738;BME280;54534;43.612;1.572;2023-04-28T11:11:37;98991.53;;;20.54;55.84
67738;BME280;54534;43.612;1.572;2023-04-28T11:16:53;98997.44;;;20.58;55.81
67738;BME280;54534;43.612;1.572;2023-04-28T11:21:46;98982.13;;;20.60;56.09
67738;BME280;54534;43.612;1.572;2023-04-28T11:24:12;98980.28;;;20.61;56.11
67738;BME280;54534;43.612;1.572;2023-04-28T11:26:39;98978.31;;;20.63;56.28
67738;BME280;54534;43.612;1.572;2023-04-28T11:29:04;98974.66;;;20.64;56.25
67738;BME280;54534;43.612;1.572;2023-04-28T11:31:30;98972.00;;;20.64;56.35
67738;BME280;54534;43.612;1.572;2023-04-28T11:33:59;98972.69;;;20.66;56.19
67738;BME280;54534;43.612;1.572;2023-04-28T11:38:52;98960.03;;;20.68;56.26
67738;BME280;54534;43.612;1.572;2023-04-28T11:41:18;98956.38;;;20.69;56.53
67738;BME280;54534;43.612;1.572;2023-04-28T11:43:43;98955.41;;;20.70;56.58
67738;BME280;54534;43.612;1.572;2023-04-28T11:46:09;98956.09;;;20.72;56.52
67738;BME280;54534;43.612;1.572;2023-04-28T11:48:34;98945.41;;;20.72;56.50
67738;BME280;54534;43.612;1.572;2023-04-28T11:51:00;98943.44;;;20.74;56.50
67738;BME280;54534;43.612;1.572;2023-04-28T11:53:43;98940.75;;;20.74;56.77
67738;BME280;54534;43.612;1.572;2023-04-28T11:56:09;98942.59;;;20.74;56.77
67738;BME280;54534;43.612;1.572;2023-04-28T11:58:36;98937.13;;;20.75;56.93
67738;BME280;54534;43.612;1.572;2023-04-28T12:01:09;98933.31;;;20.78;56.85
67738;BME280;54534;43.612;1.572;2023-04-28T12:03:45;98940.31;;;20.79;56.86
67738;BME280;54534;43.612;1.572;2023-04-28T12:06:11;98930.47;;;20.80;56.88
67738;BME280;54534;43.612;1.572;2023-04-28T12:08:36;98932.19;;;20.81;56.86
67738;BME280;54534;43.612;1.572;2023-04-28T12:11:09;98911.94;;;20.78;57.06
67738;BME280;54534;43.612;1.572;2023-04-28T12:13:36;98920.34;;;20.83;57.00
67738;BME280;54534;43.612;1.572;2023-04-28T12:16:03;98915.81;;;20.84;56.90
67738;BME280;54534;43.612;1.572;2023-04-28T12:18:35;98913.16;;;20.84;56.99
67738;BME280;54534;43.612;1.572;2023-04-28T12:21:01;98914.84;;;20.85;57.11
67738;BME280;54534;43.612;1.572;2023-04-28T12:23:36;98914.56;;;20.88;56.93
67738;BME280;54534;43.612;1.572;2023-04-28T12:26:01;98913.88;;;20.86;57.20
67738;BME280;54534;43.612;1.572;2023-04-28T12:28:39;98911.03;;;20.87;57.01
67738;BME280;54534;43.612;1.572;2023-04-28T12:31:06;98909.06;;;20.89;57.25
67738;BME280;54534;43.612;1.572;2023-04-28T12:33:35;98909.91;;;20.90;57.10
67738;BME280;54534;43.612;1.572;2023-04-28T12:36:05;98910.75;;;20.91;57.20
67738;BME280;54534;43.612;1.572;2023-04-28T12:38:30;98909.63;;;20.93;57.21
67738;BME280;54534;43.612;1.572;2023-04-28T12:40:56;98904.28;;;20.93;56.90
67738;BME280;54534;43.612;1.572;2023-04-28T12:43:23;98911.28;;;20.94;57.18
67738;BME280;54534;43.612;1.572;2023-04-28T12:45:49;98911.28;;;20.94;56.70
67738;BME280;54534;43.612;1.572;2023-04-28T12:48:15;98904.00;;;20.96;56.84
67738;BME280;54534;43.612;1.572;2023-04-28T12:50:40;98903.16;;;20.96;56.97
67738;BME280;54534;43.612;1.572;2023-04-28T12:53:06;98896.94;;;20.95;56.77
67738;BME280;54534;43.612;1.572;2023-04-28T12:55:31;98895.97;;;20.96;56.98
67738;BME280;54534;43.612;1.572;2023-04-28T12:57:57;98886.94;;;20.97;56.79
67738;BME280;54534;43.612;1.572;2023-04-28T13:00:23;98890.47;;;20.98;56.58
67738;BME280;54534;43.612;1.572;2023-04-28T13:02:49;98880.63;;;20.98;56.68
67738;BME280;54534;43.612;1.572;2023-04-28T13:05:15;98895.66;;;20.99;56.80
67738;BME280;54534;43.612;1.572;2023-04-28T13:07:41;98894.69;;;21.00;56.68
67738;BME280;54534;43.612;1.572;2023-04-28T13:10:07;98888.38;;;21.02;56.58
67738;BME280;54534;43.612;1.572;2023-04-28T13:12:33;98884.00;;;21.00;56.58
67738;BME280;54534;43.612;1.572;2023-04-28T13:15:02;98879.34;;;21.03;56.62
67738;BME280;54534;43.612;1.572;2023-04-28T13:17:28;98875.03;;;21.02;56.53
67738;BME280;54534;43.612;1.572;2023-04-28T13:19:54;98866.84;;;21.03;56.31
67738;BME280;54534;43.612;1.572;2023-04-28T13:22:19;98873.88;;;21.04;56.34
67738;BME280;54534;43.612;1.572;2023-04-28T13:24:46;98872.03;;;21.05;56.60
67738;BME280;54534;43.612;1.572;2023-04-28T13:27:12;98861.34;;;21.05;56.53
67738;BME280;54534;43.612;1.572;2023-04-28T13:29:37;98857.69;;;21.06;56.58